sensor_id;sensor_type;location;lat;lon;timestamp;P1;durP1;ratioP1;P2;durP2;ratioP2
65279;SDS011;51878;55.748;48.742;2022-12-18T00:01:20;31.45;;;17.58;;
65279;SDS011;51878;55.748;48.742;2022-12-18T00:03:49;33.28;;;17.55;;
65279;SDS011;51878;55.748;48.742;2022-12-18T00:06:19;39.15;;;16.55;;
65279;SDS011;51878;55.748;48.742;2022-12-18T00:08:46;31.05;;;16.08;;
65279;SDS011;51878;55.748;48.742;2022-12-18T00:11:14;34.45;;;15.82;;
65279;SDS011;51878;55.748;48.742;2022-12-18T00:13:43;24.50;;;14.05;;
65279;SDS011;51878;55.748;48.742;2022-12-18T00:16:11;80.22;;;16.42;;
65279;SDS011;51878;55.748;48.742;2022-12-18T00:18:40;56.30;;;15.45;;
65279;SDS011;51878;55.748;48.742;2022-12-18T00:21:09;45.45;;;18.33;;
65279;SDS011;51878;55.748;48.742;2022-12-18T00:23:38;90.20;;;16.65;;
65279;SDS011;51878;55.748;48.742;2022-12-18T00:26:10;68.05;;;16.63;;
65279;SDS011;51878;55.748;48.742;2022-12-18T00:28:58;90.35;;;19.35;;
65279;SDS011;51878;55.748;48.742;2022-12-18T00:31:27;96.97;;;16.42;;
65279;SDS011;51878;55.748;48.742;2022-12-18T00:33:55;106.78;;;18.40;;
65279;SDS011;51878;55.748;48.742;2022-12-18T00:36:24;106.90;;;17.73;;
65279;SDS011;51878;55.748;48.742;2022-12-18T00:38:54;112.35;;;20.75;;
65279;SDS011;51878;55.748;48.742;2022-12-18T00:41:22;96.72;;;18.40;;
65279;SDS011;51878;55.748;48.742;2022-12-18T00:44:09;69.22;;;19.95;;
65279;SDS011;51878;55.748;48.742;2022-12-18T00:46:38;71.35;;;15.82;;
65279;SDS011;51878;55.748;48.742;2022-12-18T00:49:05;177.20;;;21.55;;
65279;SDS011;51878;55.748;48.742;2022-12-18T00:51:33;77.38;;;19.02;;
65279;SDS011;51878;55.748;48.742;2022-12-18T00:54:00;253.98;;;21.48;;
65279;SDS011;51878;55.748;48.742;2022-12-18T00:56:27;88.80;;;16.70;;
65279;SDS011;51878;55.748;48.742;2022-12-18T00:58:54;103.45;;;14.98;;
65279;SDS011;51878;55.748;48.742;2022-12-18T01:01:21;115.03;;;17.55;;
65279;SDS011;51878;55.748;48.742;2022-12-18T01:03:48;113.45;;;18.08;;
65279;SDS011;51878;55.748;48.742;2022-12-18T01:06:16;147.27;;;20.85;;
65279;SDS011;51878;55.748;48.742;2022-12-18T01:08:43;109.97;;;16.17;;
65279;SDS011;51878;55.748;48.742;2022-12-18T01:11:12;166.32;;;19.55;;
65279;SDS011;51878;55.748;48.742;2022-12-18T01:13:41;145.27;;;15.48;;
65279;SDS011;51878;55.748;48.742;2022-12-18T01:16:10;64.72;;;16.08;;
65279;SDS011;51878;55.748;48.742;2022-12-18T01:18:39;180.30;;;18.92;;
65279;SDS011;51878;55.748;48.742;2022-12-18T01:21:10;74.55;;;12.30;;
65279;SDS011;51878;55.748;48.742;2022-12-18T01:23:39;221.10;;;22.15;;
65279;SDS011;51878;55.748;48.742;2022-12-18T01:26:08;264.40;;;22.05;;
65279;SDS011;51878;55.748;48.742;2022-12-18T01:28:36;74.18;;;12.80;;
65279;SDS011;51878;55.748;48.742;2022-12-18T01:31:14;171.00;;;17.15;;
65279;SDS011;51878;55.748;48.742;2022-12-18T01:33:43;177.15;;;16.77;;
65279;SDS011;51878;55.748;48.742;2022-12-18T01:36:14;142.82;;;14.32;;
65279;SDS011;51878;55.748;48.742;2022-12-18T01:38:45;343.88;;;22.98;;
65279;SDS011;51878;55.748;48.742;2022-12-18T01:41:13;285.15;;;24.15;;
65279;SDS011;51878;55.748;48.742;2022-12-18T01:43:43;125.07;;;13.23;;
65279;SDS011;51878;55.748;48.742;2022-12-18T01:46:19;256.20;;;22.35;;
65279;SDS011;51878;55.748;48.742;2022-12-18T01:48:48;274.83;;;23.65;;
65279;SDS011;51878;55.748;48.742;2022-12-18T01:51:17;243.55;;;18.08;;
65279;SDS011;51878;55.748;48.742;2022-12-18T01:53:45;192.27;;;17.88;;
65279;SDS011;51878;55.748;48.742;2022-12-18T01:56:16;342.60;;;21.33;;
65279;SDS011;51878;55.748;48.742;2022-12-18T02:01:23;323.00;;;20.35;;
65279;SDS011;51878;55.748;48.742;2022-12-18T02:03:51;336.30;;;19.77;;
65279;SDS011;51878;55.748;48.742;2022-12-18T02:06:33;418.17;;;29.92;;
65279;SDS011;51878;55.748;48.742;2022-12-18T02:09:17;417.38;;;24.90;;
65279;SDS011;51878;55.748;48.742;2022-12-18T02:11:50;334.52;;;22.60;;
65279;SDS011;51878;55.748;48.742;2022-12-18T02:14:32;256.58;;;14.80;;
65279;SDS011;51878;55.748;48.742;2022-12-18T02:17:18;225.55;;;18.40;;
65279;SDS011;51878;55.748;48.742;2022-12-18T02:25:56;224.25;;;17.58;;
65279;SDS011;51878;55.748;48.742;2022-12-18T02:28:35;152.70;;;14.55;;
65279;SDS011;51878;55.748;48.742;2022-12-18T02:31:11;192.82;;;14.32;;
65279;SDS011;51878;55.748;48.742;2022-12-18T02:33:43;173.32;;;17.85;;
65279;SDS011;51878;55.748;48.742;2022-12-18T02:36:12;230.65;;;15.93;;
65279;SDS011;51878;55.748;48.742;2022-12-18T02:38:41;189.98;;;17.08;;
65279;SDS011;51878;55.748;48.742;2022-12-18T02:41:10;146.82;;;13.15;;
65279;SDS011;51878;55.748;48.742;2022-12-18T02:43:40;141.65;;;14.50;;
65279;SDS011;51878;55.748;48.742;2022-12-18T02:46:34;206.88;;;16.25;;
65279;SDS011;51878;55.748;48.742;2022-12-18T02:49:26;286.23;;;17.23;;
65279;SDS011;51878;55.748;48.742;2022-12-18T03:00:18;80.65;;;11.65;;
65279;SDS011;51878;55.748;48.742;2022-12-18T03:05:32;185.48;;;19.98;;
65279;SDS011;51878;55.748;48.742;2022-12-18T03:08:08;175.85;;;17.38;;
65279;SDS011;51878;55.748;48.742;2022-12-18T03:10:41;92.20;;;11.15;;
65279;SDS011;51878;55.748;48.742;2022-12-18T03:13:20;149.63;;;15.55;;
65279;SDS011;51878;55.748;48.742;2022-12-18T03:15:54;68.95;;;12.70;;
65279;SDS011;51878;55.748;48.742;2022-12-18T03:18:25;89.68;;;12.52;;
65279;SDS011;51878;55.748;48.742;2022-12-18T03:20:57;103.18;;;16.55;;
65279;SDS011;51878;55.748;48.742;2022-12-18T03:23:27;85.65;;;13.30;;
65279;SDS011;51878;55.748;48.742;2022-12-18T03:25:59;83.00;;;15.07;;
65279;SDS011;51878;55.748;48.742;2022-12-18T03:28:33;98.73;;;14.47;;
65279;SDS011;51878;55.748;48.742;2022-12-18T03:31:05;61.25;;;11.85;;
65279;SDS011;51878;55.748;48.742;2022-12-18T03:33:41;34.10;;;12.05;;
65279;SDS011;51878;55.748;48.742;2022-12-18T03:36:14;35.38;;;12.68;;
65279;SDS011;51878;55.748;48.742;2022-12-18T03:38:41;24.50;;;11.75;;
65279;SDS011;51878;55.748;48.742;2022-12-18T03:46:52;17.27;;;10.23;;
65279;SDS011;51878;55.748;48.742;2022-12-18T03:49:33;15.68;;;9.18;;
65279;SDS011;51878;55.748;48.742;2022-12-18T03:54:41;19.52;;;11.70;;
65279;SDS011;51878;55.748;48.742;2022-12-18T03:57:11;15.55;;;9.63;;
65279;SDS011;51878;55.748;48.742;2022-12-18T03:59:43;13.27;;;8.55;;
65279;SDS011;51878;55.748;48.742;2022-12-18T04:02:12;14.32;;;8.65;;
65279;SDS011;51878;55.748;48.742;2022-12-18T04:04:42;16.27;;;10.45;;
65279;SDS011;51878;55.748;48.742;2022-12-18T04:07:11;13.65;;;8.73;;
65279;SDS011;51878;55.748;48.742;2022-12-18T04:09:39;14.95;;;10.63;;
65279;SDS011;51878;55.748;48.742;2022-12-18T04:12:08;14.27;;;8.50;;
65279;SDS011;51878;55.748;48.742;2022-12-18T04:14:35;13.60;;;9.20;;
65279;SDS011;51878;55.748;48.742;2022-12-18T04:17:02;18.65;;;11.63;;
65279;SDS011;51878;55.748;48.742;2022-12-18T04:19:29;25.02;;;14.02;;
65279;SDS011;51878;55.748;48.742;2022-12-18T04:21:57;15.07;;;8.43;;
65279;SDS011;51878;55.748;48.742;2022-12-18T04:24:24;17.65;;;9.75;;
65279;SDS011;51878;55.748;48.742;2022-12-18T04:26:51;15.48;;;8.57;;
65279;SDS011;51878;55.748;48.742;2022-12-18T04:29:18;17.33;;;10.20;;
65279;SDS011;51878;55.748;48.742;2022-12-18T04:31:45;12.57;;;7.57;;
65279;SDS011;51878;55.748;48.742;2022-12-18T04:34:12;16.13;;;9.38;;
65279;SDS011;51878;55.748;48.742;2022-12-18T04:36:39;20.77;;;10.88;;
65279;SDS011;51878;55.748;48.742;2022-12-18T04:39:06;16.63;;;9.43;;
65279;SDS011;51878;55.748;48.742;2022-12-18T04:41:33;22.73;;;11.43;;
65279;SDS011;51878;55.748;48.742;2022-12-18T04:44:00;15.95;;;8.57;;
65279;SDS011;51878;55.748;48.742;2022-12-18T04:46:27;16.48;;;9.05;;
65279;SDS011;51878;55.748;48.742;2022-12-18T04:48:54;11.75;;;7.78;;
65279;SDS011;51878;55.748;48.742;2022-12-18T04:51:21;11.77;;;7.05;;
65279;SDS011;51878;55.748;48.742;2022-12-18T04:53:52;12.45;;;6.97;;
65279;SDS011;51878;55.748;48.742;2022-12-18T04:56:19;13.75;;;7.13;;
65279;SDS011;51878;55.748;48.742;2022-12-18T04:58:46;8.07;;;5.38;;
65279;SDS011;51878;55.748;48.742;2022-12-18T05:01:14;7.38;;;4.72;;
65279;SDS011;51878;55.748;48.742;2022-12-18T05:03:42;6.28;;;4.32;;
65279;SDS011;51878;55.748;48.742;2022-12-18T05:06:10;6.82;;;3.90;;
65279;SDS011;51878;55.748;48.742;2022-12-18T05:08:37;5.80;;;3.58;;
65279;SDS011;51878;55.748;48.742;2022-12-18T05:11:11;4.60;;;2.72;;
65279;SDS011;51878;55.748;48.742;2022-12-18T05:13:42;4.28;;;2.63;;
65279;SDS011;51878;55.748;48.742;2022-12-18T05:16:11;3.78;;;2.90;;
65279;SDS011;51878;55.748;48.742;2022-12-18T05:18:39;4.38;;;2.60;;
65279;SDS011;51878;55.748;48.742;2022-12-18T05:21:06;3.35;;;2.45;;
65279;SDS011;51878;55.748;48.742;2022-12-18T05:23:33;4.28;;;2.55;;
65279;SDS011;51878;55.748;48.742;2022-12-18T05:26:02;3.33;;;2.33;;
65279;SDS011;51878;55.748;48.742;2022-12-18T05:28:31;3.67;;;2.58;;
65279;SDS011;51878;55.748;48.742;2022-12-18T05:31:00;3.35;;;2.67;;
65279;SDS011;51878;55.748;48.742;2022-12-18T05:33:29;3.40;;;2.58;;
65279;SDS011;51878;55.748;48.742;2022-12-18T05:35:59;2.83;;;2.05;;
65279;SDS011;51878;55.748;48.742;2022-12-18T05:38:29;2.72;;;2.38;;
65279;SDS011;51878;55.748;48.742;2022-12-18T05:40:58;3.15;;;2.30;;
65279;SDS011;51878;55.748;48.742;2022-12-18T05:43:26;3.08;;;2.33;;
65279;SDS011;51878;55.748;48.742;2022-12-18T05:45:53;3.50;;;2.55;;
65279;SDS011;51878;55.748;48.742;2022-12-18T05:48:21;3.10;;;2.10;;
65279;SDS011;51878;55.748;48.742;2022-12-18T05:50:48;4.30;;;2.55;;
65279;SDS011;51878;55.748;48.742;2022-12-18T05:53:18;3.70;;;2.25;;
65279;SDS011;51878;55.748;48.742;2022-12-18T05:55:46;2.30;;;1.75;;
65279;SDS011;51878;55.748;48.742;2022-12-18T05:58:14;3.42;;;2.20;;
65279;SDS011;51878;55.748;48.742;2022-12-18T06:00:43;3.58;;;2.33;;
65279;SDS011;51878;55.748;48.742;2022-12-18T06:03:12;2.15;;;1.90;;
65279;SDS011;51878;55.748;48.742;2022-12-18T06:05:41;2.65;;;2.13;;
65279;SDS011;51878;55.748;48.742;2022-12-18T06:08:10;3.80;;;2.10;;
65279;SDS011;51878;55.748;48.742;2022-12-18T06:10:39;1.63;;;1.45;;
65279;SDS011;51878;55.748;48.742;2022-12-18T06:13:06;2.17;;;1.90;;
65279;SDS011;51878;55.748;48.742;2022-12-18T06:15:36;2.97;;;2.50;;
65279;SDS011;51878;55.748;48.742;2022-12-18T06:18:04;2.58;;;2.22;;
65279;SDS011;51878;55.748;48.742;2022-12-18T06:20:31;2.25;;;1.95;;
65279;SDS011;51878;55.748;48.742;2022-12-18T06:22:59;2.60;;;2.05;;
65279;SDS011;51878;55.748;48.742;2022-12-18T06:25:26;2.47;;;2.20;;
65279;SDS011;51878;55.748;48.742;2022-12-18T06:27:53;2.90;;;2.28;;
65279;SDS011;51878;55.748;48.742;2022-12-18T06:30:21;3.20;;;2.72;;
65279;SDS011;51878;55.748;48.742;2022-12-18T06:32:48;2.78;;;2.08;;
65279;SDS011;51878;55.748;48.742;2022-12-18T06:35:21;2.85;;;2.53;;
65279;SDS011;51878;55.748;48.742;2022-12-18T06:37:49;2.95;;;2.08;;
65279;SDS011;51878;55.748;48.742;2022-12-18T06:40:16;3.63;;;2.53;;
65279;SDS011;51878;55.748;48.742;2022-12-18T06:42:43;3.67;;;2.78;;
65279;SDS011;51878;55.748;48.742;2022-12-18T06:45:10;4.28;;;2.88;;
65279;SDS011;51878;55.748;48.742;2022-12-18T06:47:37;3.05;;;2.45;;
65279;SDS011;51878;55.748;48.742;2022-12-18T06:50:05;4.40;;;3.25;;
65279;SDS011;51878;55.748;48.742;2022-12-18T06:52:32;3.88;;;2.65;;
65279;SDS011;51878;55.748;48.742;2022-12-18T06:55:00;4.50;;;2.35;;
65279;SDS011;51878;55.748;48.742;2022-12-18T06:57:28;3.17;;;2.45;;
65279;SDS011;51878;55.748;48.742;2022-12-18T06:59:55;2.08;;;1.80;;
65279;SDS011;51878;55.748;48.742;2022-12-18T07:02:22;2.20;;;1.73;;
65279;SDS011;51878;55.748;48.742;2022-12-18T07:04:49;2.22;;;1.65;;
65279;SDS011;51878;55.748;48.742;2022-12-18T07:07:16;2.75;;;1.80;;
65279;SDS011;51878;55.748;48.742;2022-12-18T07:09:43;1.60;;;1.50;;
65279;SDS011;51878;55.748;48.742;2022-12-18T07:12:10;1.75;;;1.65;;
65279;SDS011;51878;55.748;48.742;2022-12-18T07:14:37;1.90;;;1.70;;
65279;SDS011;51878;55.748;48.742;2022-12-18T07:17:04;2.00;;;1.63;;
65279;SDS011;51878;55.748;48.742;2022-12-18T07:19:31;1.63;;;1.52;;
65279;SDS011;51878;55.748;48.742;2022-12-18T07:21:59;1.48;;;1.38;;
65279;SDS011;51878;55.748;48.742;2022-12-18T07:24:29;1.50;;;1.40;;
65279;SDS011;51878;55.748;48.742;2022-12-18T07:26:56;1.48;;;1.38;;
65279;SDS011;51878;55.748;48.742;2022-12-18T07:29:23;1.40;;;1.30;;
65279;SDS011;51878;55.748;48.742;2022-12-18T07:31:51;1.70;;;1.30;;
65279;SDS011;51878;55.748;48.742;2022-12-18T07:34:18;1.25;;;1.15;;
65279;SDS011;51878;55.748;48.742;2022-12-18T07:36:45;1.63;;;1.40;;
65279;SDS011;51878;55.748;48.742;2022-12-18T07:39:12;1.00;;;1.00;;
65279;SDS011;51878;55.748;48.742;2022-12-18T07:41:41;1.48;;;1.38;;
65279;SDS011;51878;55.748;48.742;2022-12-18T07:44:12;1.38;;;1.20;;
65279;SDS011;51878;55.748;48.742;2022-12-18T07:46:40;1.52;;;1.17;;
65279;SDS011;51878;55.748;48.742;2022-12-18T07:49:07;1.30;;;1.20;;
65279;SDS011;51878;55.748;48.742;2022-12-18T07:51:34;1.35;;;1.20;;
65279;SDS011;51878;55.748;48.742;2022-12-18T07:54:01;1.73;;;1.35;;
65279;SDS011;51878;55.748;48.742;2022-12-18T07:56:28;1.92;;;1.38;;
65279;SDS011;51878;55.748;48.742;2022-12-18T07:58:56;1.20;;;1.15;;
65279;SDS011;51878;55.748;48.742;2022-12-18T08:01:24;2.05;;;1.35;;
65279;SDS011;51878;55.748;48.742;2022-12-18T08:03:52;1.20;;;1.10;;
65279;SDS011;51878;55.748;48.742;2022-12-18T08:06:20;1.40;;;1.30;;
65279;SDS011;51878;55.748;48.742;2022-12-18T08:08:48;1.42;;;1.33;;
65279;SDS011;51878;55.748;48.742;2022-12-18T08:11:18;1.45;;;1.35;;
65279;SDS011;51878;55.748;48.742;2022-12-18T08:13:45;2.67;;;1.83;;
65279;SDS011;51878;55.748;48.742;2022-12-18T08:16:12;2.20;;;1.45;;
65279;SDS011;51878;55.748;48.742;2022-12-18T08:18:39;2.10;;;1.80;;
65279;SDS011;51878;55.748;48.742;2022-12-18T08:21:09;1.90;;;1.35;;
65279;SDS011;51878;55.748;48.742;2022-12-18T08:23:41;1.42;;;1.33;;
65279;SDS011;51878;55.748;48.742;2022-12-18T08:26:10;2.47;;;1.60;;
65279;SDS011;51878;55.748;48.742;2022-12-18T08:28:38;3.53;;;2.20;;
65279;SDS011;51878;55.748;48.742;2022-12-18T08:31:05;2.08;;;1.85;;
65279;SDS011;51878;55.748;48.742;2022-12-18T08:33:33;1.63;;;1.52;;
65279;SDS011;51878;55.748;48.742;2022-12-18T08:36:01;2.40;;;2.15;;
65279;SDS011;51878;55.748;48.742;2022-12-18T08:38:28;1.98;;;1.50;;
65279;SDS011;51878;55.748;48.742;2022-12-18T08:41:02;2.40;;;1.83;;
65279;SDS011;51878;55.748;48.742;2022-12-18T08:43:33;3.95;;;2.03;;
65279;SDS011;51878;55.748;48.742;2022-12-18T08:46:19;1.55;;;1.45;;
65279;SDS011;51878;55.748;48.742;2022-12-18T08:48:48;2.38;;;1.70;;
65279;SDS011;51878;55.748;48.742;2022-12-18T08:51:17;2.05;;;1.85;;
65279;SDS011;51878;55.748;48.742;2022-12-18T08:53:45;1.83;;;1.60;;
65279;SDS011;51878;55.748;48.742;2022-12-18T08:56:13;2.28;;;1.65;;
65279;SDS011;51878;55.748;48.742;2022-12-18T08:58:41;2.35;;;1.80;;
65279;SDS011;51878;55.748;48.742;2022-12-18T09:01:09;2.13;;;1.45;;
65279;SDS011;51878;55.748;48.742;2022-12-18T09:03:42;1.58;;;1.48;;
65279;SDS011;51878;55.748;48.742;2022-12-18T09:06:15;1.38;;;1.27;;
65279;SDS011;51878;55.748;48.742;2022-12-18T09:08:43;1.42;;;1.30;;
65279;SDS011;51878;55.748;48.742;2022-12-18T09:11:12;2.22;;;1.70;;
65279;SDS011;51878;55.748;48.742;2022-12-18T09:13:48;2.40;;;1.77;;
65279;SDS011;51878;55.748;48.742;2022-12-18T09:16:16;2.50;;;1.90;;
65279;SDS011;51878;55.748;48.742;2022-12-18T09:18:43;4.05;;;2.15;;
65279;SDS011;51878;55.748;48.742;2022-12-18T09:21:11;2.55;;;2.13;;
65279;SDS011;51878;55.748;48.742;2022-12-18T09:23:41;3.03;;;2.05;;
65279;SDS011;51878;55.748;48.742;2022-12-18T09:26:08;3.38;;;2.53;;
65279;SDS011;51878;55.748;48.742;2022-12-18T09:28:36;3.35;;;2.05;;
65279;SDS011;51878;55.748;48.742;2022-12-18T09:31:04;1.92;;;1.60;;
65279;SDS011;51878;55.748;48.742;2022-12-18T09:33:34;2.85;;;2.15;;
65279;SDS011;51878;55.748;48.742;2022-12-18T09:36:03;2.72;;;1.70;;
65279;SDS011;51878;55.748;48.742;2022-12-18T09:38:32;2.55;;;2.17;;
65279;SDS011;51878;55.748;48.742;2022-12-18T09:41:00;2.85;;;2.50;;
65279;SDS011;51878;55.748;48.742;2022-12-18T09:43:43;3.92;;;2.53;;
65279;SDS011;51878;55.748;48.742;2022-12-18T09:46:16;3.90;;;2.50;;
65279;SDS011;51878;55.748;48.742;2022-12-18T09:48:54;5.25;;;3.35;;
65279;SDS011;51878;55.748;48.742;2022-12-18T09:51:27;2.35;;;1.83;;
65279;SDS011;51878;55.748;48.742;2022-12-18T09:54:03;2.90;;;2.35;;
65279;SDS011;51878;55.748;48.742;2022-12-18T09:56:38;4.57;;;2.78;;
65279;SDS011;51878;55.748;48.742;2022-12-18T09:59:14;3.65;;;2.90;;
65279;SDS011;51878;55.748;48.742;2022-12-18T10:02:15;2.97;;;2.40;;
65279;SDS011;51878;55.748;48.742;2022-12-18T10:04:46;2.17;;;1.83;;
65279;SDS011;51878;55.748;48.742;2022-12-18T10:07:51;3.78;;;2.80;;
65279;SDS011;51878;55.748;48.742;2022-12-18T10:13:17;4.10;;;2.80;;
65279;SDS011;51878;55.748;48.742;2022-12-18T10:19:01;3.47;;;2.42;;
65279;SDS011;51878;55.748;48.742;2022-12-18T10:21:37;4.63;;;3.00;;
65279;SDS011;51878;55.748;48.742;2022-12-18T10:24:30;5.00;;;3.05;;
65279;SDS011;51878;55.748;48.742;2022-12-18T10:27:25;3.70;;;2.67;;
65279;SDS011;51878;55.748;48.742;2022-12-18T10:29:53;3.35;;;2.47;;
65279;SDS011;51878;55.748;48.742;2022-12-18T10:32:22;3.95;;;2.72;;
65279;SDS011;51878;55.748;48.742;2022-12-18T10:34:53;3.72;;;2.65;;
65279;SDS011;51878;55.748;48.742;2022-12-18T10:37:26;4.97;;;3.33;;
65279;SDS011;51878;55.748;48.742;2022-12-18T10:45:39;7.38;;;4.07;;
65279;SDS011;51878;55.748;48.742;2022-12-18T10:48:21;7.63;;;4.57;;
65279;SDS011;51878;55.748;48.742;2022-12-18T10:50:49;6.05;;;3.88;;
65279;SDS011;51878;55.748;48.742;2022-12-18T10:53:39;5.45;;;3.63;;
65279;SDS011;51878;55.748;48.742;2022-12-18T10:56:07;6.68;;;4.55;;
65279;SDS011;51878;55.748;48.742;2022-12-18T10:58:36;8.57;;;5.45;;
65279;SDS011;51878;55.748;48.742;2022-12-18T11:03:45;6.15;;;4.43;;
65279;SDS011;51878;55.748;48.742;2022-12-18T11:06:28;8.68;;;5.03;;
65279;SDS011;51878;55.748;48.742;2022-12-18T11:08:59;14.32;;;8.85;;
65279;SDS011;51878;55.748;48.742;2022-12-18T11:11:31;9.13;;;5.20;;
65279;SDS011;51878;55.748;48.742;2022-12-18T11:14:01;7.63;;;4.68;;
65279;SDS011;51878;55.748;48.742;2022-12-18T11:16:29;6.78;;;4.55;;
65279;SDS011;51878;55.748;48.742;2022-12-18T11:27:41;5.05;;;3.33;;
65279;SDS011;51878;55.748;48.742;2022-12-18T11:30:24;9.05;;;3.75;;
65279;SDS011;51878;55.748;48.742;2022-12-18T11:33:08;6.65;;;3.70;;
65279;SDS011;51878;55.748;48.742;2022-12-18T11:35:47;18.00;;;4.63;;
65279;SDS011;51878;55.748;48.742;2022-12-18T11:38:24;4.93;;;3.28;;
65279;SDS011;51878;55.748;48.742;2022-12-18T11:43:28;8.48;;;5.32;;
65279;SDS011;51878;55.748;48.742;2022-12-18T11:46:19;30.67;;;6.78;;
65279;SDS011;51878;55.748;48.742;2022-12-18T11:49:17;6.55;;;3.80;;
65279;SDS011;51878;55.748;48.742;2022-12-18T11:52:03;12.52;;;5.97;;
65279;SDS011;51878;55.748;48.742;2022-12-18T11:54:41;18.20;;;10.68;;
65279;SDS011;51878;55.748;48.742;2022-12-18T12:00:20;144.48;;;10.68;;
65279;SDS011;51878;55.748;48.742;2022-12-18T12:14:51;18.20;;;9.15;;
65279;SDS011;51878;55.748;48.742;2022-12-18T12:28:44;32.90;;;6.72;;
65279;SDS011;51878;55.748;48.742;2022-12-18T12:39:18;50.78;;;10.32;;
65279;SDS011;51878;55.748;48.742;2022-12-18T12:41:58;45.38;;;5.95;;
65279;SDS011;51878;55.748;48.742;2022-12-18T12:44:46;9.30;;;5.82;;
65279;SDS011;51878;55.748;48.742;2022-12-18T12:47:26;25.85;;;6.60;;
65279;SDS011;51878;55.748;48.742;2022-12-18T12:49:59;11.70;;;6.25;;
65279;SDS011;51878;55.748;48.742;2022-12-18T12:52:48;164.15;;;11.35;;
65279;SDS011;51878;55.748;48.742;2022-12-18T12:55:20;11.85;;;5.55;;
65279;SDS011;51878;55.748;48.742;2022-12-18T12:58:05;160.23;;;9.77;;
65279;SDS011;51878;55.748;48.742;2022-12-18T13:00:44;32.45;;;8.25;;
65279;SDS011;51878;55.748;48.742;2022-12-18T13:03:42;27.25;;;9.48;;
65279;SDS011;51878;55.748;48.742;2022-12-18T13:06:28;41.15;;;7.05;;
65279;SDS011;51878;55.748;48.742;2022-12-18T13:09:12;107.68;;;9.90;;
65279;SDS011;51878;55.748;48.742;2022-12-18T13:11:40;72.55;;;8.85;;
65279;SDS011;51878;55.748;48.742;2022-12-18T13:14:31;11.57;;;7.03;;
65279;SDS011;51878;55.748;48.742;2022-12-18T13:20:08;50.08;;;7.28;;
65279;SDS011;51878;55.748;48.742;2022-12-18T13:22:38;95.90;;;10.82;;
65279;SDS011;51878;55.748;48.742;2022-12-18T13:40:58;710.80;;;30.88;;
65279;SDS011;51878;55.748;48.742;2022-12-18T13:44:31;534.67;;;23.52;;
65279;SDS011;51878;55.748;48.742;2022-12-18T13:46:52;328.23;;;15.57;;
65279;SDS011;51878;55.748;48.742;2022-12-18T13:49:24;414.60;;;19.15;;
65279;SDS011;51878;55.748;48.742;2022-12-18T13:51:59;453.55;;;21.60;;
65279;SDS011;51878;55.748;48.742;2022-12-18T13:57:04;348.48;;;17.35;;
65279;SDS011;51878;55.748;48.742;2022-12-18T13:59:36;116.25;;;10.55;;
65279;SDS011;51878;55.748;48.742;2022-12-18T14:04:54;173.45;;;10.77;;
65279;SDS011;51878;55.748;48.742;2022-12-18T14:07:22;135.73;;;9.27;;
65279;SDS011;51878;55.748;48.742;2022-12-18T14:09:52;44.95;;;6.72;;
65279;SDS011;51878;55.748;48.742;2022-12-18T14:12:32;29.23;;;7.05;;
65279;SDS011;51878;55.748;48.742;2022-12-18T14:17:54;23.98;;;5.47;;
65279;SDS011;51878;55.748;48.742;2022-12-18T14:20:25;57.95;;;8.00;;
65279;SDS011;51878;55.748;48.742;2022-12-18T14:22:53;74.40;;;8.30;;
65279;SDS011;51878;55.748;48.742;2022-12-18T14:25:22;82.15;;;7.05;;
65279;SDS011;51878;55.748;48.742;2022-12-18T14:27:59;359.38;;;17.83;;
65279;SDS011;51878;55.748;48.742;2022-12-18T14:33:08;62.65;;;8.50;;
65279;SDS011;51878;55.748;48.742;2022-12-18T14:38:23;36.40;;;5.07;;
65279;SDS011;51878;55.748;48.742;2022-12-18T14:40:57;59.97;;;8.98;;
65279;SDS011;51878;55.748;48.742;2022-12-18T14:43:46;115.18;;;10.10;;
65279;SDS011;51878;55.748;48.742;2022-12-18T14:49:00;348.42;;;16.33;;
65279;SDS011;51878;55.748;48.742;2022-12-18T14:51:52;201.30;;;10.65;;
65279;SDS011;51878;55.748;48.742;2022-12-18T14:54:24;208.98;;;11.57;;
65279;SDS011;51878;55.748;48.742;2022-12-18T14:59:28;74.30;;;8.57;;
65279;SDS011;51878;55.748;48.742;2022-12-18T15:04:42;108.32;;;7.82;;
65279;SDS011;51878;55.748;48.742;2022-12-18T15:09:38;206.45;;;11.23;;
65279;SDS011;51878;55.748;48.742;2022-12-18T15:12:17;68.30;;;9.68;;
65279;SDS011;51878;55.748;48.742;2022-12-18T15:14:50;81.82;;;9.07;;
65279;SDS011;51878;55.748;48.742;2022-12-18T15:17:21;143.55;;;9.95;;
65279;SDS011;51878;55.748;48.742;2022-12-18T15:19:51;28.55;;;5.70;;
65279;SDS011;51878;55.748;48.742;2022-12-18T15:22:28;77.63;;;9.25;;
65279;SDS011;51878;55.748;48.742;2022-12-18T15:25:03;127.97;;;9.23;;
65279;SDS011;51878;55.748;48.742;2022-12-18T15:28:02;214.25;;;10.82;;
65279;SDS011;51878;55.748;48.742;2022-12-18T15:30:30;160.93;;;9.85;;
65279;SDS011;51878;55.748;48.742;2022-12-18T15:33:17;147.85;;;10.30;;
65279;SDS011;51878;55.748;48.742;2022-12-18T15:35:57;72.90;;;7.43;;
65279;SDS011;51878;55.748;48.742;2022-12-18T15:38:39;18.30;;;8.18;;
65279;SDS011;51878;55.748;48.742;2022-12-18T15:41:13;165.10;;;11.88;;
65279;SDS011;51878;55.748;48.742;2022-12-18T15:43:50;46.63;;;7.65;;
65279;SDS011;51878;55.748;48.742;2022-12-18T15:46:22;74.18;;;9.27;;
65279;SDS011;51878;55.748;48.742;2022-12-18T15:48:59;20.02;;;6.50;;
65279;SDS011;51878;55.748;48.742;2022-12-18T15:51:32;62.60;;;7.45;;
65279;SDS011;51878;55.748;48.742;2022-12-18T15:54:02;13.50;;;6.90;;
65279;SDS011;51878;55.748;48.742;2022-12-18T15:56:32;12.82;;;6.60;;
65279;SDS011;51878;55.748;48.742;2022-12-18T15:59:18;7.95;;;4.55;;
65279;SDS011;51878;55.748;48.742;2022-12-18T16:02:16;21.52;;;5.25;;
65279;SDS011;51878;55.748;48.742;2022-12-18T16:04:48;17.98;;;7.20;;
65279;SDS011;51878;55.748;48.742;2022-12-18T16:07:21;58.80;;;7.18;;
65279;SDS011;51878;55.748;48.742;2022-12-18T16:09:53;60.20;;;7.63;;
65279;SDS011;51878;55.748;48.742;2022-12-18T16:12:21;10.18;;;5.35;;
65279;SDS011;51878;55.748;48.742;2022-12-18T16:14:54;13.23;;;7.03;;
65279;SDS011;51878;55.748;48.742;2022-12-18T16:17:26;25.13;;;8.32;;
65279;SDS011;51878;55.748;48.742;2022-12-18T16:19:53;10.98;;;6.95;;
65279;SDS011;51878;55.748;48.742;2022-12-18T16:22:21;10.65;;;6.40;;
65279;SDS011;51878;55.748;48.742;2022-12-18T16:24:51;8.27;;;5.95;;
65279;SDS011;51878;55.748;48.742;2022-12-18T16:27:27;11.13;;;6.75;;
65279;SDS011;51878;55.748;48.742;2022-12-18T16:29:57;31.88;;;6.28;;
65279;SDS011;51878;55.748;48.742;2022-12-18T16:32:27;12.32;;;7.10;;
65279;SDS011;51878;55.748;48.742;2022-12-18T16:34:54;54.38;;;8.20;;
65279;SDS011;51878;55.748;48.742;2022-12-18T16:37:29;8.30;;;4.97;;
65279;SDS011;51878;55.748;48.742;2022-12-18T16:39:56;63.50;;;6.80;;
65279;SDS011;51878;55.748;48.742;2022-12-18T16:42:23;24.58;;;6.72;;
65279;SDS011;51878;55.748;48.742;2022-12-18T16:44:50;31.80;;;5.72;;
65279;SDS011;51878;55.748;48.742;2022-12-18T16:47:19;66.88;;;7.72;;
65279;SDS011;51878;55.748;48.742;2022-12-18T16:49:49;8.73;;;5.97;;
65279;SDS011;51878;55.748;48.742;2022-12-18T16:52:22;8.95;;;5.65;;
65279;SDS011;51878;55.748;48.742;2022-12-18T16:55:04;43.10;;;6.88;;
65279;SDS011;51878;55.748;48.742;2022-12-18T16:57:36;7.25;;;4.93;;
65279;SDS011;51878;55.748;48.742;2022-12-18T17:00:03;5.85;;;4.20;;